createdAt,value
2018-05-18T00:00:59.468Z,1017.14
2018-05-18T00:01:59.464Z,1017.15
2018-05-18T00:02:59.468Z,1017.11
2018-05-18T00:03:59.680Z,1017.15
2018-05-18T00:04:59.461Z,1017.10
2018-05-18T00:05:59.488Z,1017.14
2018-05-18T00:06:59.687Z,1017.15
2018-05-18T00:07:59.456Z,1017.10
2018-05-18T00:08:59.456Z,1017.15
2018-05-18T00:09:59.480Z,1017.10
2018-05-18T00:10:59.464Z,1017.13
2018-05-18T00:11:59.461Z,1017.10
2018-05-18T00:12:59.448Z,1017.10
2018-05-18T00:13:59.448Z,1017.09
2018-05-18T00:14:59.444Z,1017.12
2018-05-18T00:15:59.647Z,1017.07
2018-05-18T00:16:59.444Z,1017.09
2018-05-18T00:17:59.455Z,1017.05
2018-05-18T00:18:59.444Z,1017.04
2018-05-18T00:19:59.450Z,1017.06
2018-05-18T00:20:59.451Z,1017.07
2018-05-18T00:21:59.462Z,1017.05
2018-05-18T00:22:59.451Z,1017.02
2018-05-18T00:23:59.449Z,1017.04
2018-05-18T00:24:59.433Z,1016.98
2018-05-18T00:25:59.643Z,1017.02
2018-05-18T00:26:59.434Z,1016.99
2018-05-18T00:27:59.445Z,1017.00
2018-05-18T00:28:59.445Z,1017.01
2018-05-18T00:29:59.439Z,1017.01
2018-05-18T00:30:59.442Z,1017.04
2018-05-18T00:31:59.426Z,1017.04
2018-05-18T00:32:59.426Z,1017.04
2018-05-18T00:33:59.423Z,1017.06
2018-05-18T00:34:59.442Z,1017.06
2018-05-18T00:35:59.628Z,1017.00
2018-05-18T00:36:59.423Z,1017.06
2018-05-18T00:37:59.450Z,1017.05
2018-05-18T00:38:59.626Z,1017.06
2018-05-18T00:39:59.485Z,1017.08
2018-05-18T00:40:59.417Z,1017.08
2018-05-18T00:41:59.619Z,1017.07
2018-05-18T00:42:59.416Z,1017.09
2018-05-18T00:43:59.429Z,1017.07
2018-05-18T00:44:59.411Z,1017.06
2018-05-18T00:45:59.612Z,1017.09
2018-05-18T00:46:59.615Z,1017.02
2018-05-18T00:47:59.611Z,1017.04
2018-05-18T00:48:59.405Z,1017.03
2018-05-18T00:49:59.405Z,1017.05
2018-05-18T00:50:59.412Z,1017.05
2018-05-18T00:51:59.610Z,1016.98
2018-05-18T00:52:59.401Z,1016.95
2018-05-18T00:53:59.406Z,1016.98
2018-05-18T00:54:59.612Z,1016.98
2018-05-18T00:55:59.410Z,1016.97
2018-05-18T00:56:59.611Z,1017.01
2018-05-18T00:57:59.396Z,1017.02
2018-05-18T00:58:59.397Z,1017.04
2018-05-18T00:59:59.397Z,1017.09
2018-05-18T01:00:59.393Z,1017.05
2018-05-18T01:01:59.393Z,1017.06
2018-05-18T01:02:59.395Z,1017.00
2018-05-18T01:03:59.400Z,1017.03
2018-05-18T01:04:59.402Z,1017.01
2018-05-18T01:05:59.389Z,1016.99
2018-05-18T01:06:59.389Z,1017.00
2018-05-18T01:07:59.384Z,1016.96
2018-05-18T01:08:59.387Z,1016.97
2018-05-18T01:09:59.585Z,1016.96
2018-05-18T01:10:59.381Z,1016.99
2018-05-18T01:11:59.593Z,1017.00
2018-05-18T01:12:59.582Z,1016.97
2018-05-18T01:13:59.383Z,1016.94
2018-05-18T01:14:59.592Z,1016.91
2018-05-18T01:15:59.489Z,1016.92
2018-05-18T01:16:59.580Z,1016.97
2018-05-18T01:17:59.374Z,1016.93
2018-05-18T01:18:59.576Z,1016.90
2018-05-18T01:19:59.391Z,1016.89
2018-05-18T01:20:59.401Z,1016.93
2018-05-18T01:21:59.370Z,1016.95
2018-05-18T01:22:59.368Z,1016.96
2018-05-18T01:23:59.386Z,1016.99
2018-05-18T01:24:59.368Z,1017.01
2018-05-18T01:25:59.386Z,1016.99
2018-05-18T01:26:59.377Z,1016.99
2018-05-18T01:27:59.565Z,1016.99
2018-05-18T01:28:59.372Z,1016.98
2018-05-18T01:29:59.587Z,1016.99
2018-05-18T01:30:59.376Z,1016.96
2018-05-18T01:31:59.360Z,1017.00
2018-05-18T01:32:59.356Z,1016.98
2018-05-18T01:33:59.356Z,1016.98
2018-05-18T01:34:59.371Z,1016.98
2018-05-18T01:35:59.350Z,1017.00
2018-05-18T01:36:59.365Z,1016.98
2018-05-18T01:37:59.554Z,1016.98
2018-05-18T01:38:59.556Z,1016.99
2018-05-18T01:39:59.361Z,1016.99
2018-05-18T01:40:59.346Z,1017.00
2018-05-18T01:41:59.349Z,1017.01
2018-05-18T01:42:59.344Z,1017.04
2018-05-18T01:43:59.356Z,1017.05
2018-05-18T01:44:59.351Z,1017.06
2018-05-18T01:45:59.352Z,1017.06
2018-05-18T01:46:59.346Z,1017.03
2018-05-18T01:47:59.347Z,1017.02
2018-05-18T01:48:59.356Z,1017.02
2018-05-18T01:49:59.337Z,1017.01
2018-05-18T01:50:59.333Z,1016.99
2018-05-18T01:51:59.332Z,1016.94
2018-05-18T01:52:59.332Z,1016.97
2018-05-18T01:53:59.344Z,1016.97
2018-05-18T01:54:59.337Z,1016.94
2018-05-18T01:55:59.341Z,1016.94
2018-05-18T01:56:59.325Z,1016.92
2018-05-18T01:57:59.338Z,1016.89
2018-05-18T01:58:59.332Z,1016.91
2018-05-18T01:59:59.349Z,1016.92
2018-05-18T02:00:59.318Z,1016.88
2018-05-18T02:01:59.316Z,1016.91
2018-05-18T02:02:59.315Z,1016.91
2018-05-18T02:03:59.315Z,1016.91
2018-05-18T02:04:59.530Z,1016.90
2018-05-18T02:05:59.326Z,1016.91
2018-05-18T02:06:59.318Z,1016.91
2018-05-18T02:07:59.312Z,1016.93
2018-05-18T02:08:59.522Z,1016.90
2018-05-18T02:09:59.313Z,1016.90
2018-05-18T02:10:59.507Z,1016.93
2018-05-18T02:11:59.500Z,1016.90
2018-05-18T02:12:59.308Z,1016.92
2018-05-18T02:13:59.311Z,1016.93
2018-05-18T02:14:59.304Z,1016.91
2018-05-18T02:15:59.316Z,1016.95
2018-05-18T02:16:59.496Z,1016.93
2018-05-18T02:17:59.300Z,1016.96
2018-05-18T02:18:59.289Z,1016.99
2018-05-18T02:19:59.488Z,1016.99
2018-05-18T02:20:59.487Z,1016.99
2018-05-18T02:21:59.486Z,1017.00
2018-05-18T02:22:59.290Z,1016.98
2018-05-18T02:23:59.291Z,1016.99
2018-05-18T02:24:59.496Z,1017.01
2018-05-18T02:25:59.483Z,1017.00
2018-05-18T02:26:59.287Z,1016.97
2018-05-18T02:27:59.273Z,1016.99
2018-05-18T02:28:59.301Z,1017.01
2018-05-18T02:29:59.297Z,1017.01
2018-05-18T02:30:59.269Z,1017.01
2018-05-18T02:31:59.267Z,1016.96
2018-05-18T02:32:59.265Z,1017.00
2018-05-18T02:33:59.286Z,1016.99
2018-05-18T02:34:59.271Z,1017.03
2018-05-18T02:35:59.264Z,1017.02
2018-05-18T02:36:59.461Z,1017.01
2018-05-18T02:37:59.462Z,1017.05
2018-05-18T02:38:59.267Z,1017.02
2018-05-18T02:39:59.254Z,1017.04
2018-05-18T02:40:59.271Z,1017.04
2018-05-18T02:41:59.251Z,1017.01
2018-05-18T02:42:59.249Z,1016.97
2018-05-18T02:43:59.261Z,1017.01
2018-05-18T02:44:59.249Z,1017.04
2018-05-18T02:45:59.447Z,1017.04
2018-05-18T02:46:59.247Z,1017.05
2018-05-18T02:47:59.256Z,1017.05
2018-05-18T02:48:59.239Z,1017.06
2018-05-18T02:49:59.249Z,1017.05
2018-05-18T02:50:59.450Z,1017.07
2018-05-18T02:51:59.264Z,1017.04
2018-05-18T02:52:59.231Z,1017.04
2018-05-18T02:53:59.232Z,1017.03
2018-05-18T02:54:59.241Z,1017.04
2018-05-18T02:55:59.432Z,1017.08
2018-05-18T02:56:59.226Z,1017.09
2018-05-18T02:57:59.428Z,1017.07
2018-05-18T02:58:59.235Z,1017.11
2018-05-18T02:59:59.222Z,1017.06
2018-05-18T03:00:59.235Z,1017.02
2018-05-18T03:01:59.434Z,1017.10
2018-05-18T03:02:59.437Z,1017.08
2018-05-18T03:03:59.214Z,1017.06
2018-05-18T03:04:59.414Z,1017.06
2018-05-18T03:05:59.211Z,1017.04
2018-05-18T03:06:59.421Z,1017.06
2018-05-18T03:07:59.208Z,1017.04
2018-05-18T03:08:59.421Z,1017.04
2018-05-18T03:09:59.421Z,1017.04
2018-05-18T03:10:59.217Z,1017.07
2018-05-18T03:11:59.212Z,1017.07
2018-05-18T03:12:59.205Z,1017.02
2018-05-18T03:13:59.418Z,1017.03
2018-05-18T03:14:59.198Z,1017.03
2018-05-18T03:15:59.202Z,1017.02
2018-05-18T03:16:59.204Z,1017.04
2018-05-18T03:17:59.188Z,1017.05
2018-05-18T03:18:59.202Z,1017.05
2018-05-18T03:19:59.194Z,1017.08
2018-05-18T03:20:59.473Z,1017.06
2018-05-18T03:21:59.395Z,1017.06
2018-05-18T03:22:59.180Z,1017.04
2018-05-18T03:23:59.199Z,1017.06
2018-05-18T03:24:59.403Z,1017.04
2018-05-18T03:25:59.375Z,1017.03
2018-05-18T03:26:59.187Z,1017.05
2018-05-18T03:27:59.171Z,1017.05
2018-05-18T03:28:59.167Z,1017.01
2018-05-18T03:29:59.180Z,1017.06
2018-05-18T03:30:59.171Z,1017.06
2018-05-18T03:31:59.381Z,1017.00
2018-05-18T03:32:59.161Z,1017.07
2018-05-18T03:33:59.186Z,1017.07
2018-05-18T03:34:59.166Z,1017.08
2018-05-18T03:35:59.376Z,1017.07
2018-05-18T03:36:59.155Z,1017.10
2018-05-18T03:37:59.367Z,1017.09
2018-05-18T03:38:59.148Z,1017.08
2018-05-18T03:39:59.160Z,1017.11
2018-05-18T03:40:59.153Z,1017.08
2018-05-18T03:41:59.146Z,1017.09
2018-05-18T03:42:59.142Z,1017.03
2018-05-18T03:43:59.144Z,1017.07
2018-05-18T03:44:59.156Z,1017.03
2018-05-18T03:45:59.340Z,1017.01
2018-05-18T03:46:59.344Z,1017.02
2018-05-18T03:47:59.337Z,1017.02
2018-05-18T03:48:59.136Z,1017.06
2018-05-18T03:49:59.141Z,1017.07
2018-05-18T03:50:59.140Z,1017.04
2018-05-18T03:51:59.327Z,1017.03
2018-05-18T03:52:59.358Z,1017.08
2018-05-18T03:53:59.326Z,1017.08
2018-05-18T03:54:59.147Z,1017.09
2018-05-18T03:55:59.136Z,1017.12
2018-05-18T03:56:59.131Z,1017.10
2018-05-18T03:57:59.339Z,1017.15
2018-05-18T03:58:59.117Z,1017.12
2018-05-18T03:59:59.121Z,1017.13
2018-05-18T04:00:59.125Z,1017.16
2018-05-18T04:01:59.133Z,1017.15
2018-05-18T04:02:59.108Z,1017.20
2018-05-18T04:03:59.304Z,1017.19
2018-05-18T04:04:59.102Z,1017.22
2018-05-18T04:05:59.312Z,1017.20
2018-05-18T04:06:59.308Z,1017.27
2018-05-18T04:07:59.313Z,1017.24
2018-05-18T04:08:59.309Z,1017.27
2018-05-18T04:09:59.096Z,1017.31
2018-05-18T04:10:59.304Z,1017.28
2018-05-18T04:11:59.087Z,1017.29
2018-05-18T04:12:59.097Z,1017.30
2018-05-18T04:13:59.289Z,1017.24
2018-05-18T04:14:59.094Z,1017.24
2018-05-18T04:15:59.079Z,1017.26
2018-05-18T04:16:59.096Z,1017.26
2018-05-18T04:17:59.278Z,1017.27
2018-05-18T04:18:59.076Z,1017.31
2018-05-18T04:19:59.084Z,1017.32
2018-05-18T04:20:59.070Z,1017.34
2018-05-18T04:21:59.069Z,1017.36
2018-05-18T04:22:59.067Z,1017.35
2018-05-18T04:23:59.084Z,1017.37
2018-05-18T04:24:59.066Z,1017.41
2018-05-18T04:25:59.064Z,1017.37
2018-05-18T04:26:59.072Z,1017.34
2018-05-18T04:27:59.055Z,1017.37
2018-05-18T04:28:59.057Z,1017.36
2018-05-18T04:29:59.110Z,1017.39
2018-05-18T04:30:59.251Z,1017.38
2018-05-18T04:31:59.046Z,1017.36
2018-05-18T04:32:59.046Z,1017.36
2018-05-18T04:33:59.045Z,1017.41
2018-05-18T04:34:59.244Z,1017.38
2018-05-18T04:35:59.056Z,1017.40
2018-05-18T04:36:59.051Z,1017.41
2018-05-18T04:37:59.034Z,1017.37
2018-05-18T04:38:59.039Z,1017.43
2018-05-18T04:39:59.048Z,1017.44
2018-05-18T04:40:59.029Z,1017.44
2018-05-18T04:41:59.130Z,1017.44
2018-05-18T04:42:59.025Z,1017.44
2018-05-18T04:43:59.023Z,1017.49
2018-05-18T04:44:59.023Z,1017.46
2018-05-18T04:45:59.221Z,1017.48
2018-05-18T04:46:59.018Z,1017.47
2018-05-18T04:47:59.017Z,1017.50
2018-05-18T04:48:59.015Z,1017.47
2018-05-18T04:49:59.013Z,1017.48
2018-05-18T04:50:59.078Z,1017.48
2018-05-18T04:51:59.019Z,1017.52
2018-05-18T04:52:59.005Z,1017.51
2018-05-18T04:53:59.018Z,1017.50
2018-05-18T04:54:59.004Z,1017.52
2018-05-18T04:55:59.000Z,1017.55
2018-05-18T04:56:58.998Z,1017.52
2018-05-18T04:57:58.996Z,1017.54
2018-05-18T04:58:59.005Z,1017.49
2018-05-18T04:59:58.998Z,1017.50
2018-05-18T05:00:58.992Z,1017.53
2018-05-18T05:01:59.192Z,1017.53
2018-05-18T05:02:58.998Z,1017.53
2018-05-18T05:03:59.006Z,1017.51
2018-05-18T05:04:59.185Z,1017.54
2018-05-18T05:05:58.981Z,1017.53
2018-05-18T05:06:58.991Z,1017.53
2018-05-18T05:07:58.994Z,1017.48
2018-05-18T05:08:59.180Z,1017.51
2018-05-18T05:09:58.975Z,1017.50
2018-05-18T05:10:58.989Z,1017.51
2018-05-18T05:11:58.969Z,1017.52
2018-05-18T05:12:59.184Z,1017.51
2018-05-18T05:13:58.980Z,1017.51
2018-05-18T05:14:58.980Z,1017.55
2018-05-18T05:15:58.962Z,1017.54
2018-05-18T05:16:58.960Z,1017.55
2018-05-18T05:17:59.031Z,1017.56
2018-05-18T05:18:58.968Z,1017.56
2018-05-18T05:19:59.182Z,1017.60
2018-05-18T05:20:58.959Z,1017.59
2018-05-18T05:21:58.955Z,1017.61
2018-05-18T05:22:58.959Z,1017.62
2018-05-18T05:23:58.951Z,1017.61
2018-05-18T05:24:58.946Z,1017.61
2018-05-18T05:25:58.957Z,1017.60
2018-05-18T05:26:58.944Z,1017.62
2018-05-18T05:27:58.952Z,1017.62
2018-05-18T05:28:58.938Z,1017.64
2018-05-18T05:29:58.951Z,1017.65
2018-05-18T05:30:58.946Z,1017.64
2018-05-18T05:31:58.942Z,1017.64
2018-05-18T05:32:58.945Z,1017.66
2018-05-18T05:33:58.932Z,1017.64
2018-05-18T05:34:58.956Z,1017.69
2018-05-18T05:35:58.933Z,1017.67
2018-05-18T05:36:58.935Z,1017.69
2018-05-18T05:37:58.921Z,1017.69
2018-05-18T05:38:58.936Z,1017.69
2018-05-18T05:39:58.930Z,1017.66
2018-05-18T05:40:58.919Z,1017.71
2018-05-18T05:41:58.919Z,1017.66
2018-05-18T05:42:58.924Z,1017.65
2018-05-18T05:43:58.911Z,1017.69
2018-05-18T05:44:58.910Z,1017.72
2018-05-18T05:45:58.910Z,1017.75
2018-05-18T05:46:58.932Z,1017.77
2018-05-18T05:47:58.916Z,1017.80
2018-05-18T05:48:58.914Z,1017.79
2018-05-18T05:49:59.104Z,1017.79
2018-05-18T05:50:59.101Z,1017.76
2018-05-18T05:51:58.899Z,1017.75
2018-05-18T05:52:58.908Z,1017.74
2018-05-18T05:53:58.897Z,1017.78
2018-05-18T05:54:58.891Z,1017.73
2018-05-18T05:55:58.887Z,1017.73
2018-05-18T05:56:58.896Z,1017.75
2018-05-18T05:57:58.890Z,1017.75
2018-05-18T05:58:58.883Z,1017.74
2018-05-18T05:59:58.881Z,1017.75
2018-05-18T06:00:58.877Z,1017.77
2018-05-18T06:01:58.876Z,1017.76
2018-05-18T06:02:58.874Z,1017.75
2018-05-18T06:03:58.874Z,1017.80
2018-05-18T06:04:58.880Z,1017.82
2018-05-18T06:05:58.879Z,1017.78
2018-05-18T06:06:58.878Z,1017.78
2018-05-18T06:07:58.865Z,1017.80
2018-05-18T06:08:58.867Z,1017.84
2018-05-18T06:09:58.859Z,1017.84
2018-05-18T06:10:58.857Z,1017.84
2018-05-18T06:11:58.857Z,1017.87
2018-05-18T06:12:59.059Z,1017.83
2018-05-18T06:13:58.865Z,1017.82
2018-05-18T06:14:58.851Z,1017.86
2018-05-18T06:15:58.846Z,1017.83
2018-05-18T06:16:58.845Z,1017.92
2018-05-18T06:17:58.853Z,1017.90
2018-05-18T06:18:58.843Z,1017.88
2018-05-18T06:19:58.849Z,1017.88
2018-05-18T06:20:58.836Z,1017.88
2018-05-18T06:21:58.836Z,1017.90
2018-05-18T06:22:58.835Z,1017.87
2018-05-18T06:23:58.840Z,1017.92
2018-05-18T06:24:58.845Z,1017.92
2018-05-18T06:25:59.031Z,1017.95
2018-05-18T06:26:59.040Z,1017.92
2018-05-18T06:27:58.823Z,1017.92
2018-05-18T06:28:59.040Z,1017.92
2018-05-18T06:29:58.840Z,1017.92
2018-05-18T06:30:58.817Z,1017.97
2018-05-18T06:31:58.815Z,1017.98
2018-05-18T06:32:58.812Z,1017.98
2018-05-18T06:33:58.816Z,1018.03
2018-05-18T06:34:59.035Z,1018.06
2018-05-18T06:35:58.804Z,1018.03
2018-05-18T06:36:59.009Z,1018.02
2018-05-18T06:37:59.026Z,1018.04
2018-05-18T06:38:58.822Z,1018.00
2018-05-18T06:39:58.796Z,1018.04
2018-05-18T06:40:58.808Z,1018.01
2018-05-18T06:41:58.793Z,1018.06
2018-05-18T06:42:58.800Z,1018.05
2018-05-18T06:43:58.798Z,1018.04
2018-05-18T06:44:58.784Z,1018.06
2018-05-18T06:45:58.785Z,1018.10
2018-05-18T06:46:58.782Z,1018.12
2018-05-18T06:47:58.780Z,1018.13
2018-05-18T06:48:58.990Z,1018.12
2018-05-18T06:49:58.989Z,1018.14
2018-05-18T06:50:58.784Z,1018.10
2018-05-18T06:51:58.784Z,1018.08
2018-05-18T06:52:58.777Z,1018.11
2018-05-18T06:53:58.775Z,1018.07
2018-05-18T06:54:58.982Z,1018.09
2018-05-18T06:55:58.761Z,1018.08
2018-05-18T06:56:58.776Z,1018.01
2018-05-18T06:57:58.756Z,1018.00
2018-05-18T06:58:58.772Z,1017.98
2018-05-18T06:59:58.761Z,1018.01
2018-05-18T07:00:58.765Z,1018.01
2018-05-18T07:01:58.769Z,1018.00
2018-05-18T07:02:58.757Z,1018.02
2018-05-18T07:03:58.853Z,1018.02
2018-05-18T07:04:58.744Z,1018.05
2018-05-18T07:05:58.742Z,1018.06
2018-05-18T07:06:58.748Z,1018.06
2018-05-18T07:07:58.739Z,1018.07
2018-05-18T07:08:58.748Z,1018.06
2018-05-18T07:09:58.732Z,1018.06
2018-05-18T07:10:58.743Z,1018.06
2018-05-18T07:11:58.728Z,1018.07
2018-05-18T07:12:58.741Z,1018.08
2018-05-18T07:13:58.739Z,1018.09
2018-05-18T07:14:58.726Z,1018.10
2018-05-18T07:15:58.735Z,1018.09
2018-05-18T07:16:58.926Z,1018.13
2018-05-18T07:17:58.721Z,1018.10
2018-05-18T07:18:58.725Z,1018.08
2018-05-18T07:19:58.729Z,1018.08
2018-05-18T07:20:58.726Z,1018.08
2018-05-18T07:21:58.715Z,1018.10
2018-05-18T07:22:58.733Z,1018.15
2018-05-18T07:23:58.712Z,1018.16
2018-05-18T07:24:58.713Z,1018.16
2018-05-18T07:25:58.721Z,1018.12
2018-05-18T07:26:58.705Z,1018.14
2018-05-18T07:27:58.712Z,1018.17
2018-05-18T07:28:58.704Z,1018.14
2018-05-18T07:29:58.750Z,1018.18
2018-05-18T07:30:58.706Z,1018.20
2018-05-18T07:31:58.710Z,1018.18
2018-05-18T07:32:58.699Z,1018.18
2018-05-18T07:33:58.696Z,1018.20
2018-05-18T07:34:58.695Z,1018.15
2018-05-18T07:35:58.693Z,1018.17
2018-05-18T07:36:58.692Z,1018.20
2018-05-18T07:37:58.691Z,1018.20
2018-05-18T07:38:58.692Z,1018.20
2018-05-18T07:39:58.687Z,1018.22
2018-05-18T07:40:58.699Z,1018.18
2018-05-18T07:41:58.693Z,1018.22
2018-05-18T07:42:58.684Z,1018.24
2018-05-18T07:43:58.825Z,1018.21
2018-05-18T07:44:58.680Z,1018.22
2018-05-18T07:45:58.685Z,1018.24
2018-05-18T07:46:58.686Z,1018.24
2018-05-18T07:47:58.683Z,1018.26
2018-05-18T07:48:58.673Z,1018.25
2018-05-18T07:49:58.699Z,1018.23
2018-05-18T07:50:58.672Z,1018.23
2018-05-18T07:51:58.679Z,1018.24
2018-05-18T07:52:58.677Z,1018.25
2018-05-18T07:53:58.679Z,1018.25
2018-05-18T07:54:58.664Z,1018.27
2018-05-18T07:55:58.875Z,1018.34
2018-05-18T07:56:58.683Z,1018.32
2018-05-18T07:57:58.680Z,1018.37
2018-05-18T07:58:58.660Z,1018.34
2018-05-18T07:59:58.673Z,1018.33
2018-05-18T08:00:58.655Z,1018.33
2018-05-18T08:01:58.656Z,1018.30
2018-05-18T08:02:58.655Z,1018.28
2018-05-18T08:03:58.650Z,1018.26
2018-05-18T08:04:58.673Z,1018.29
2018-05-18T08:05:58.850Z,1018.24
2018-05-18T08:06:58.648Z,1018.23
2018-05-18T08:07:58.647Z,1018.23
2018-05-18T08:08:58.673Z,1018.27
2018-05-18T08:09:58.643Z,1018.25
2018-05-18T08:10:58.672Z,1018.23
2018-05-18T08:11:58.641Z,1018.20
2018-05-18T08:12:58.639Z,1018.23
2018-05-18T08:13:58.842Z,1018.22
2018-05-18T08:14:58.639Z,1018.20
2018-05-18T08:15:58.636Z,1018.21
2018-05-18T08:16:58.838Z,1018.25
2018-05-18T08:17:58.655Z,1018.23
2018-05-18T08:18:58.640Z,1018.21
2018-05-18T08:19:58.628Z,1018.25
2018-05-18T08:20:58.846Z,1018.20
2018-05-18T08:21:58.644Z,1018.20
2018-05-18T08:22:58.630Z,1018.17
2018-05-18T08:23:58.634Z,1018.14
2018-05-18T08:24:58.627Z,1018.12
2018-05-18T08:25:58.622Z,1018.14
2018-05-18T08:26:58.663Z,1018.19
2018-05-18T08:27:58.634Z,1018.19
2018-05-18T08:28:58.634Z,1018.19
2018-05-18T08:29:58.618Z,1018.13
2018-05-18T08:30:58.618Z,1018.19
2018-05-18T08:31:58.625Z,1018.20
2018-05-18T08:32:58.817Z,1018.23
2018-05-18T08:33:58.628Z,1018.23
2018-05-18T08:34:58.614Z,1018.24
2018-05-18T08:35:58.816Z,1018.22
2018-05-18T08:36:58.617Z,1018.23
2018-05-18T08:37:58.622Z,1018.21
2018-05-18T08:38:58.611Z,1018.20
2018-05-18T08:39:58.619Z,1018.17
2018-05-18T08:40:58.608Z,1018.19
2018-05-18T08:41:58.617Z,1018.23
2018-05-18T08:42:58.616Z,1018.20
2018-05-18T08:43:58.604Z,1018.25
2018-05-18T08:44:58.602Z,1018.15
2018-05-18T08:45:58.601Z,1018.18
2018-05-18T08:46:58.622Z,1018.14
2018-05-18T08:47:58.625Z,1018.15
2018-05-18T08:48:58.611Z,1018.18
2018-05-18T08:49:58.599Z,1018.18
2018-05-18T08:50:58.804Z,1018.20
2018-05-18T08:51:58.608Z,1018.17
2018-05-18T08:52:58.608Z,1018.15
2018-05-18T08:53:58.625Z,1018.15
2018-05-18T08:54:58.590Z,1018.15
2018-05-18T08:55:58.591Z,1018.17
2018-05-18T08:56:58.601Z,1018.22
2018-05-18T08:57:58.599Z,1018.16
2018-05-18T08:58:58.588Z,1018.15
2018-05-18T08:59:58.596Z,1018.16
2018-05-18T09:00:58.601Z,1018.15
2018-05-18T09:01:58.799Z,1018.14
2018-05-18T09:02:58.584Z,1018.10
2018-05-18T09:03:58.587Z,1018.10
2018-05-18T09:04:58.595Z,1018.11
2018-05-18T09:05:58.580Z,1018.10
2018-05-18T09:06:58.581Z,1018.05
2018-05-18T09:07:58.576Z,1018.08
2018-05-18T09:08:58.617Z,1018.10
2018-05-18T09:09:58.577Z,1018.13
2018-05-18T09:10:58.575Z,1018.08
2018-05-18T09:11:58.578Z,1018.08
2018-05-18T09:12:58.780Z,1018.13
2018-05-18T09:13:58.593Z,1018.14
2018-05-18T09:14:58.568Z,1018.11
2018-05-18T09:15:58.665Z,1018.13
2018-05-18T09:16:58.581Z,1018.14
2018-05-18T09:17:58.590Z,1018.10
2018-05-18T09:18:58.565Z,1018.10
2018-05-18T09:19:58.575Z,1018.11
2018-05-18T09:20:58.564Z,1018.10
2018-05-18T09:21:58.564Z,1018.10
2018-05-18T09:22:58.566Z,1018.12
2018-05-18T09:23:58.563Z,1018.08
2018-05-18T09:24:58.569Z,1018.15
2018-05-18T09:25:58.561Z,1018.10
2018-05-18T09:26:58.566Z,1018.07
2018-05-18T09:27:58.564Z,1018.09
2018-05-18T09:28:58.572Z,1018.10
2018-05-18T09:29:58.573Z,1018.11
2018-05-18T09:30:58.564Z,1018.11
2018-05-18T09:31:58.576Z,1018.14
2018-05-18T09:32:58.571Z,1018.10
2018-05-18T09:33:58.571Z,1018.12
2018-05-18T09:34:58.556Z,1018.09
2018-05-18T09:35:58.561Z,1018.12
2018-05-18T09:36:58.555Z,1018.10
2018-05-18T09:37:58.548Z,1018.09
2018-05-18T09:38:58.551Z,1018.12
2018-05-18T09:39:58.555Z,1018.18
2018-05-18T09:40:58.748Z,1018.11
2018-05-18T09:41:58.546Z,1018.10
2018-05-18T09:42:58.544Z,1018.11
2018-05-18T09:43:58.556Z,1018.14
2018-05-18T09:44:58.540Z,1018.10
2018-05-18T09:45:58.542Z,1018.11
2018-05-18T09:46:58.543Z,1018.09
2018-05-18T09:47:58.536Z,1018.06
2018-05-18T09:48:58.550Z,1018.11
2018-05-18T09:49:58.758Z,1018.08
2018-05-18T09:50:58.538Z,1018.09
2018-05-18T09:51:58.537Z,1018.05
2018-05-18T09:52:58.738Z,1018.02
2018-05-18T09:53:58.626Z,1018.05
2018-05-18T09:54:58.685Z,1018.02
2018-05-18T09:55:58.544Z,1018.06
2018-05-18T09:56:58.531Z,1018.02
2018-05-18T09:57:58.534Z,1018.01
2018-05-18T09:58:58.532Z,1018.05
2018-05-18T09:59:58.528Z,1018.04
2018-05-18T10:00:58.528Z,1018.02
2018-05-18T10:01:58.535Z,1018.02
2018-05-18T10:02:58.528Z,1018.02
2018-05-18T10:03:58.535Z,1018.04
2018-05-18T10:04:58.728Z,1018.04
2018-05-18T10:05:58.541Z,1018.04
2018-05-18T10:06:58.524Z,1018.06
2018-05-18T10:07:58.532Z,1018.06
2018-05-18T10:08:58.522Z,1018.08
2018-05-18T10:09:58.529Z,1018.09
2018-05-18T10:10:58.531Z,1018.09
2018-05-18T10:11:58.517Z,1018.11
2018-05-18T10:12:58.533Z,1018.10
2018-05-18T10:13:58.730Z,1018.09
2018-05-18T10:14:58.515Z,1018.12
2018-05-18T10:15:58.516Z,1018.10
2018-05-18T10:16:58.731Z,1018.08
2018-05-18T10:17:58.540Z,1018.09
2018-05-18T10:18:58.514Z,1018.10
2018-05-18T10:19:58.717Z,1018.05
2018-05-18T10:20:58.531Z,1018.10
2018-05-18T10:21:58.513Z,1018.13
2018-05-18T10:22:58.521Z,1018.15
2018-05-18T10:23:58.711Z,1018.11
2018-05-18T10:24:58.534Z,1018.07
2018-05-18T10:25:58.517Z,1018.06
2018-05-18T10:26:58.527Z,1018.08
2018-05-18T10:27:58.507Z,1018.07
2018-05-18T10:28:58.532Z,1018.08
2018-05-18T10:29:58.507Z,1018.08
2018-05-18T10:30:58.517Z,1018.10
2018-05-18T10:31:58.530Z,1018.07
2018-05-18T10:32:58.719Z,1018.08
2018-05-18T10:33:58.502Z,1018.08
2018-05-18T10:34:58.515Z,1018.06
2018-05-18T10:35:58.514Z,1018.06
2018-05-18T10:36:58.503Z,1018.09
2018-05-18T10:37:58.507Z,1018.09
2018-05-18T10:38:58.511Z,1018.08
2018-05-18T10:39:58.510Z,1018.06
2018-05-18T10:40:58.508Z,1018.04
2018-05-18T10:41:58.500Z,1018.00
2018-05-18T10:42:58.521Z,1018.07
2018-05-18T10:43:58.498Z,1018.00
2018-05-18T10:44:58.705Z,1018.03
2018-05-18T10:45:58.504Z,1017.97
2018-05-18T10:46:58.506Z,1018.02
2018-05-18T10:47:58.694Z,1017.99
2018-05-18T10:48:58.574Z,1018.00
2018-05-18T10:49:58.504Z,1017.98
2018-05-18T10:50:58.503Z,1017.94
2018-05-18T10:51:58.489Z,1017.93
2018-05-18T10:52:58.526Z,1017.90
2018-05-18T10:53:58.495Z,1017.90
2018-05-18T10:54:58.506Z,1017.89
2018-05-18T10:55:58.490Z,1017.88
2018-05-18T10:56:58.503Z,1017.86
2018-05-18T10:57:58.497Z,1017.85
2018-05-18T10:58:58.509Z,1017.83
2018-05-18T10:59:58.691Z,1017.84
2018-05-18T11:00:58.486Z,1017.84
2018-05-18T11:01:58.502Z,1017.82
2018-05-18T11:02:58.487Z,1017.80
2018-05-18T11:03:58.498Z,1017.85
2018-05-18T11:04:58.692Z,1017.81
2018-05-18T11:05:58.498Z,1017.80
2018-05-18T11:06:58.487Z,1017.75
2018-05-18T11:07:58.685Z,1017.78
2018-05-18T11:08:58.482Z,1017.74
2018-05-18T11:09:58.483Z,1017.75
2018-05-18T11:10:58.711Z,1017.71
2018-05-18T11:11:58.491Z,1017.69
2018-05-18T11:12:58.490Z,1017.63
2018-05-18T11:13:58.495Z,1017.67
2018-05-18T11:14:58.481Z,1017.62
2018-05-18T11:15:58.480Z,1017.67
2018-05-18T11:16:58.477Z,1017.68
2018-05-18T11:17:58.478Z,1017.68
2018-05-18T11:18:58.479Z,1017.67
2018-05-18T11:19:58.696Z,1017.64
2018-05-18T11:20:58.475Z,1017.65
2018-05-18T11:21:58.478Z,1017.68
2018-05-18T11:22:58.475Z,1017.69
2018-05-18T11:23:58.479Z,1017.67
2018-05-18T11:24:58.689Z,1017.64
2018-05-18T11:25:58.486Z,1017.59
2018-05-18T11:26:58.476Z,1017.59
2018-05-18T11:27:58.676Z,1017.57
2018-05-18T11:28:58.487Z,1017.58
2018-05-18T11:29:58.477Z,1017.57
2018-05-18T11:30:58.675Z,1017.56
2018-05-18T11:31:58.485Z,1017.58
2018-05-18T11:32:58.688Z,1017.56
2018-05-18T11:33:58.483Z,1017.55
2018-05-18T11:34:58.488Z,1017.57
2018-05-18T11:35:58.474Z,1017.56
2018-05-18T11:36:58.471Z,1017.53
2018-05-18T11:37:58.499Z,1017.54
2018-05-18T11:38:58.469Z,1017.54
2018-05-18T11:39:58.683Z,1017.52
2018-05-18T11:40:58.469Z,1017.54
2018-05-18T11:41:58.484Z,1017.58
2018-05-18T11:42:58.478Z,1017.55
2018-05-18T11:43:58.477Z,1017.52
2018-05-18T11:44:58.506Z,1017.56
2018-05-18T11:45:58.498Z,1017.52
2018-05-18T11:46:58.471Z,1017.49
2018-05-18T11:47:58.540Z,1017.47
2018-05-18T11:48:58.469Z,1017.44
2018-05-18T11:49:58.467Z,1017.44
2018-05-18T11:50:58.467Z,1017.43
2018-05-18T11:51:58.467Z,1017.38
2018-05-18T11:52:58.466Z,1017.37
2018-05-18T11:53:58.468Z,1017.38
2018-05-18T11:54:58.493Z,1017.36
2018-05-18T11:55:58.469Z,1017.38
2018-05-18T11:56:58.480Z,1017.38
2018-05-18T11:57:58.465Z,1017.43
2018-05-18T11:58:58.484Z,1017.39
2018-05-18T11:59:58.468Z,1017.40
2018-05-18T12:00:58.465Z,1017.36
2018-05-18T12:01:58.463Z,1017.45
2018-05-18T12:02:58.502Z,1017.38
2018-05-18T12:03:58.468Z,1017.35
2018-05-18T12:04:58.469Z,1017.30
2018-05-18T12:05:58.477Z,1017.30